createdAt,value
2019-03-24T00:00:53.794Z,64.50
2019-03-24T00:01:53.782Z,66.30
2019-03-24T00:02:53.753Z,62.10
2019-03-24T00:03:53.741Z,63.90
2019-03-24T00:04:53.740Z,65.20
2019-03-24T00:05:53.729Z,63.00
2019-03-24T00:06:53.736Z,62.70
2019-03-24T00:07:53.697Z,63.40
2019-03-24T00:08:53.687Z,61.90
2019-03-24T00:09:53.674Z,62.50
2019-03-24T00:10:53.662Z,62.20
2019-03-24T00:11:53.658Z,68.50
2019-03-24T00:12:53.645Z,64.10
2019-03-24T00:13:53.644Z,63.90
2019-03-24T00:14:53.617Z,66.90
2019-03-24T00:15:53.631Z,63.70
2019-03-24T00:16:53.666Z,61.50
2019-03-24T00:17:53.592Z,63.60
2019-03-24T00:18:53.590Z,63.70
2019-03-24T00:19:53.562Z,61.10
2019-03-24T00:20:53.550Z,65.10
2019-03-24T00:21:53.550Z,63.40
2019-03-24T00:22:53.533Z,63.50
2019-03-24T00:23:53.518Z,63.80
2019-03-24T00:24:53.528Z,64.10
2019-03-24T00:25:53.497Z,65.90
2019-03-24T00:26:53.499Z,66.10
2019-03-24T00:27:53.496Z,61.60
2019-03-24T00:28:53.460Z,66.30
2019-03-24T00:29:53.450Z,63.10
2019-03-24T00:30:53.443Z,63.40
2019-03-24T00:31:53.426Z,67.20
2019-03-24T00:32:53.426Z,63.10
2019-03-24T00:33:53.406Z,64.20
2019-03-24T00:34:53.392Z,64.70
2019-03-24T00:35:53.379Z,63.50
2019-03-24T00:36:53.409Z,62.70
2019-03-24T00:37:53.423Z,67.10
2019-03-24T00:38:53.430Z,64.00
2019-03-24T00:39:53.340Z,66.10
2019-03-24T00:40:53.345Z,64.80
2019-03-24T00:41:53.317Z,65.20
2019-03-24T00:42:53.330Z,64.70
2019-03-24T00:43:53.293Z,66.70
2019-03-24T00:44:53.320Z,62.70
2019-03-24T00:45:53.280Z,65.80
2019-03-24T00:46:53.264Z,62.50
2019-03-24T00:47:53.260Z,65.50
2019-03-24T00:48:53.233Z,66.20
2019-03-24T00:49:53.249Z,67.40
2019-03-24T00:50:53.217Z,65.40
2019-03-24T00:51:53.202Z,66.60
2019-03-24T00:52:53.203Z,62.40
2019-03-24T00:53:53.222Z,65.10
2019-03-24T00:54:53.201Z,65.00
2019-03-24T00:55:53.159Z,65.20
2019-03-24T00:56:53.151Z,64.70
2019-03-24T00:57:53.222Z,64.60
2019-03-24T00:58:53.136Z,68.20
2019-03-24T00:59:53.139Z,64.80
2019-03-24T01:00:53.127Z,64.10
2019-03-24T01:01:53.091Z,63.40
2019-03-24T01:02:53.075Z,65.00
2019-03-24T01:03:53.069Z,66.50
2019-03-24T01:04:53.105Z,66.10
2019-03-24T01:05:53.048Z,68.20
2019-03-24T01:06:53.029Z,64.90
2019-03-24T01:07:53.019Z,62.60
2019-03-24T01:08:53.023Z,66.00
2019-03-24T01:09:52.998Z,65.10
2019-03-24T01:10:53.035Z,65.80
2019-03-24T01:11:52.998Z,70.00
2019-03-24T01:12:52.966Z,67.20
2019-03-24T01:13:52.959Z,64.60
2019-03-24T01:14:52.946Z,66.50
2019-03-24T01:15:52.963Z,66.90
2019-03-24T01:16:52.939Z,64.90
2019-03-24T01:17:52.906Z,64.80
2019-03-24T01:18:52.902Z,68.50
2019-03-24T01:19:52.883Z,64.80
2019-03-24T01:20:52.871Z,67.80
2019-03-24T01:21:52.876Z,64.10
2019-03-24T01:22:52.863Z,66.90
2019-03-24T01:23:52.859Z,66.60
2019-03-24T01:24:52.830Z,66.00
2019-03-24T01:25:52.818Z,66.10
2019-03-24T01:26:52.820Z,67.90
2019-03-24T01:27:52.837Z,65.40
2019-03-24T01:28:52.820Z,66.50
2019-03-24T01:29:52.770Z,63.50
2019-03-24T01:30:52.761Z,68.00
2019-03-24T01:31:52.748Z,66.30
2019-03-24T01:32:52.742Z,67.40
2019-03-24T01:33:52.770Z,71.30
2019-03-24T01:34:52.746Z,66.00
2019-03-24T01:35:52.705Z,67.20
2019-03-24T01:36:52.693Z,66.10
2019-03-24T01:37:52.682Z,68.50
2019-03-24T01:38:52.687Z,64.70
2019-03-24T01:39:52.679Z,67.90
2019-03-24T01:40:52.647Z,69.30
2019-03-24T01:41:52.636Z,65.30
2019-03-24T01:42:52.652Z,67.80
2019-03-24T01:43:52.624Z,66.80
2019-03-24T01:44:52.652Z,67.30
2019-03-24T01:45:58.487Z,64.10
2019-03-24T01:46:53.585Z,65.70
2019-03-24T01:47:52.570Z,67.50
2019-03-24T01:48:52.578Z,68.50
2019-03-24T01:49:52.556Z,69.10
2019-03-24T01:50:52.551Z,71.70
2019-03-24T01:51:52.530Z,66.70
2019-03-24T01:52:52.513Z,67.90
2019-03-24T01:53:52.502Z,71.50
2019-03-24T01:54:52.500Z,68.30
2019-03-24T01:55:52.488Z,73.10
2019-03-24T01:56:52.488Z,68.70
2019-03-24T01:57:52.549Z,68.50
2019-03-24T01:58:52.494Z,71.70
2019-03-24T01:59:52.446Z,70.40
2019-03-24T02:00:52.429Z,70.10
2019-03-24T02:01:52.422Z,72.40
2019-03-24T02:02:52.411Z,70.00
2019-03-24T02:03:52.390Z,71.10
2019-03-24T02:04:52.394Z,71.10
2019-03-24T02:05:52.369Z,68.10
2019-03-24T02:06:52.361Z,68.00
2019-03-24T02:07:52.355Z,72.00
2019-03-24T02:08:52.346Z,70.00
2019-03-24T02:09:52.330Z,72.80
2019-03-24T02:10:52.314Z,70.40
2019-03-24T02:11:52.308Z,74.10
2019-03-24T02:12:52.292Z,69.40
2019-03-24T02:13:52.290Z,72.60
2019-03-24T02:14:52.284Z,71.60
2019-03-24T02:15:52.358Z,71.30
2019-03-24T02:16:52.243Z,69.90
2019-03-24T02:17:52.242Z,71.70
2019-03-24T02:18:52.227Z,71.50
2019-03-24T02:19:52.219Z,70.80
2019-03-24T02:20:52.203Z,69.30
2019-03-24T02:21:52.187Z,72.00
2019-03-24T02:22:52.179Z,71.00
2019-03-24T02:23:52.182Z,70.00
2019-03-24T02:24:52.170Z,71.10
2019-03-24T02:25:52.137Z,73.40
2019-03-24T02:26:52.125Z,70.10
2019-03-24T02:27:52.117Z,72.40
2019-03-24T02:28:52.111Z,72.70
2019-03-24T02:29:52.144Z,72.10
2019-03-24T02:30:52.111Z,73.00
2019-03-24T02:31:52.074Z,70.70
2019-03-24T02:32:52.065Z,71.30
2019-03-24T02:33:52.132Z,70.70
2019-03-24T02:34:52.040Z,71.40
2019-03-24T02:35:52.050Z,72.80
2019-03-24T02:36:52.029Z,72.90
2019-03-24T02:37:52.008Z,72.80
2019-03-24T02:38:52.013Z,72.40
2019-03-24T02:39:51.990Z,71.00
2019-03-24T02:40:51.985Z,72.20
2019-03-24T02:41:51.965Z,75.80
2019-03-24T02:42:51.955Z,72.10
2019-03-24T02:43:51.942Z,73.10
2019-03-24T02:44:51.931Z,71.90
2019-03-24T02:45:51.922Z,74.50
2019-03-24T02:46:51.915Z,73.30
2019-03-24T02:47:51.893Z,70.20
2019-03-24T02:48:51.876Z,72.70
2019-03-24T02:49:51.900Z,71.20
2019-03-24T02:50:51.881Z,75.50
2019-03-24T02:51:51.844Z,71.70
2019-03-24T02:52:51.843Z,72.60
2019-03-24T02:53:51.821Z,73.60
2019-03-24T02:54:51.812Z,75.50
2019-03-24T02:55:51.813Z,71.30
2019-03-24T02:56:51.788Z,73.00
2019-03-24T02:57:51.788Z,72.70
2019-03-24T02:58:51.766Z,74.50
2019-03-24T02:59:51.762Z,75.70
2019-03-24T03:00:51.753Z,71.50
2019-03-24T03:01:51.731Z,74.70
2019-03-24T03:02:51.720Z,74.90
2019-03-24T03:03:51.758Z,76.00
2019-03-24T03:04:51.724Z,74.40
2019-03-24T03:05:51.743Z,71.10
2019-03-24T03:06:51.682Z,73.10
2019-03-24T03:07:51.663Z,69.60
2019-03-24T03:08:51.653Z,73.40
2019-03-24T03:09:51.661Z,70.20
2019-03-24T03:10:51.744Z,71.90
2019-03-24T03:11:51.643Z,72.20
2019-03-24T03:12:51.606Z,71.20
2019-03-24T03:13:51.596Z,72.50
2019-03-24T03:14:51.598Z,72.10
2019-03-24T03:15:51.609Z,73.30
2019-03-24T03:16:51.568Z,73.10
2019-03-24T03:17:51.557Z,75.60
2019-03-24T03:18:51.550Z,76.70
2019-03-24T03:19:53.708Z,73.80
2019-03-24T03:20:51.515Z,73.10
2019-03-24T03:21:51.509Z,72.40
2019-03-24T03:22:51.492Z,72.50
2019-03-24T03:23:51.497Z,74.00
2019-03-24T03:24:51.482Z,74.20
2019-03-24T03:25:51.486Z,79.50
2019-03-24T03:26:51.486Z,79.20
2019-03-24T03:27:51.440Z,71.80
2019-03-24T03:28:51.429Z,74.30
2019-03-24T03:29:51.416Z,73.90
2019-03-24T03:30:51.614Z,71.40
2019-03-24T03:31:51.412Z,77.00
2019-03-24T03:32:51.427Z,79.00
2019-03-24T03:33:51.373Z,74.70
2019-03-24T03:34:51.361Z,77.70
2019-03-24T03:35:51.354Z,77.50
2019-03-24T03:36:51.369Z,75.70
2019-03-24T03:37:51.452Z,78.50
2019-03-24T03:38:51.315Z,73.50
2019-03-24T03:39:57.057Z,76.50
2019-03-24T03:40:52.298Z,77.00
2019-03-24T03:41:51.296Z,76.50
2019-03-24T03:42:51.333Z,77.10
2019-03-24T03:43:51.269Z,78.20
2019-03-24T03:44:51.253Z,74.60
2019-03-24T03:45:51.243Z,79.80
2019-03-24T03:46:53.003Z,79.30
2019-03-24T03:47:51.224Z,78.50
2019-03-24T03:48:51.204Z,79.50
2019-03-24T03:49:51.190Z,76.90
2019-03-24T03:50:51.208Z,79.50
2019-03-24T03:51:51.171Z,79.10
2019-03-24T03:52:51.162Z,81.00
2019-03-24T03:53:51.181Z,77.00
2019-03-24T03:54:51.179Z,77.60
2019-03-24T03:55:51.135Z,78.40
2019-03-24T03:56:51.128Z,79.60
2019-03-24T03:57:51.104Z,77.20
2019-03-24T03:58:51.091Z,80.90
2019-03-24T03:59:51.082Z,82.90
2019-03-24T04:00:51.071Z,79.80
2019-03-24T04:01:51.053Z,82.40
2019-03-24T04:02:51.082Z,80.30
2019-03-24T04:03:51.036Z,82.40
2019-03-24T04:04:51.079Z,78.40
2019-03-24T04:05:51.033Z,81.90
2019-03-24T04:06:51.003Z,78.50
2019-03-24T04:07:50.999Z,80.80
2019-03-24T04:08:50.980Z,82.40
2019-03-24T04:09:50.972Z,75.60
2019-03-24T04:10:50.955Z,73.60
2019-03-24T04:11:50.998Z,80.30
2019-03-24T04:12:50.948Z,81.70
2019-03-24T04:13:50.940Z,81.20
2019-03-24T04:14:51.001Z,78.60
2019-03-24T04:15:50.949Z,84.40
2019-03-24T04:16:50.888Z,79.40
2019-03-24T04:17:50.911Z,77.70
2019-03-24T04:18:50.871Z,82.50
2019-03-24T04:19:50.868Z,82.90
2019-03-24T04:20:50.863Z,84.40
2019-03-24T04:21:50.837Z,84.20
2019-03-24T04:22:50.858Z,80.70
2019-03-24T04:23:50.818Z,81.50
2019-03-24T04:24:50.814Z,77.30
2019-03-24T04:25:50.821Z,77.10
2019-03-24T04:26:50.841Z,79.70
2019-03-24T04:27:50.791Z,78.90
2019-03-24T04:28:50.755Z,81.00
2019-03-24T04:29:50.746Z,85.10
2019-03-24T04:30:50.734Z,81.70
2019-03-24T04:31:50.738Z,78.00
2019-03-24T04:32:50.712Z,78.90
2019-03-24T04:33:50.706Z,81.50
2019-03-24T04:34:50.687Z,80.00
2019-03-24T04:35:50.678Z,83.30
2019-03-24T04:36:50.668Z,81.30
2019-03-24T04:37:50.675Z,78.50
2019-03-24T04:38:50.686Z,81.90
2019-03-24T04:39:50.660Z,84.30
2019-03-24T04:40:50.637Z,80.00
2019-03-24T04:41:50.608Z,81.30
2019-03-24T04:42:50.603Z,82.40
2019-03-24T04:43:50.613Z,83.40
2019-03-24T04:44:50.581Z,82.00
2019-03-24T04:45:50.564Z,82.50
2019-03-24T04:46:50.551Z,84.10
2019-03-24T04:47:50.568Z,82.30
2019-03-24T04:48:50.554Z,81.80
2019-03-24T04:49:50.524Z,84.30
2019-03-24T04:50:50.507Z,77.20
2019-03-24T04:51:50.542Z,83.80
2019-03-24T04:52:50.493Z,79.20
2019-03-24T04:53:50.498Z,82.40
2019-03-24T04:54:50.507Z,84.70
2019-03-24T04:55:50.482Z,82.40
2019-03-24T04:56:50.462Z,80.30
2019-03-24T04:57:50.436Z,83.70
2019-03-24T04:58:50.421Z,83.90
2019-03-24T04:59:50.429Z,79.50
2019-03-24T05:00:50.407Z,78.20
2019-03-24T05:01:50.493Z,79.00
2019-03-24T05:02:50.373Z,81.90
2019-03-24T05:03:50.374Z,80.20
2019-03-24T05:04:50.383Z,82.30
2019-03-24T05:05:50.359Z,77.20
2019-03-24T05:06:50.355Z,85.50
2019-03-24T05:07:50.319Z,83.00
2019-03-24T05:08:50.314Z,82.60
2019-03-24T05:09:50.325Z,77.70
2019-03-24T05:10:50.287Z,81.50
2019-03-24T05:11:50.351Z,79.30
2019-03-24T05:12:50.325Z,87.60
2019-03-24T05:13:50.250Z,80.30
2019-03-24T05:14:50.255Z,79.20
2019-03-24T05:15:50.231Z,83.00
2019-03-24T05:16:50.219Z,86.20
2019-03-24T05:17:50.231Z,80.10
2019-03-24T05:18:50.194Z,83.30
2019-03-24T05:19:50.203Z,83.80
2019-03-24T05:20:50.175Z,80.90
2019-03-24T05:21:50.169Z,82.10
2019-03-24T05:22:50.179Z,81.00
2019-03-24T05:23:50.151Z,80.50
2019-03-24T05:24:50.297Z,81.70
2019-03-24T05:25:50.116Z,81.90
2019-03-24T05:26:50.105Z,81.60
2019-03-24T05:27:50.123Z,80.60
2019-03-24T05:28:50.107Z,78.90
2019-03-24T05:29:50.071Z,78.90
2019-03-24T05:30:50.063Z,80.40
2019-03-24T05:31:50.059Z,82.80
2019-03-24T05:32:50.116Z,79.80
2019-03-24T05:33:50.037Z,78.80
2019-03-24T05:34:50.036Z,82.60
2019-03-24T05:35:50.008Z,82.20
2019-03-24T05:36:50.073Z,83.10
2019-03-24T05:37:50.000Z,82.30
2019-03-24T05:38:49.978Z,87.20
2019-03-24T05:39:49.963Z,81.70
2019-03-24T05:40:49.950Z,83.70
2019-03-24T05:41:49.936Z,83.70
2019-03-24T05:42:49.933Z,84.70
2019-03-24T05:43:49.912Z,78.50
2019-03-24T05:44:49.906Z,79.80
2019-03-24T05:45:49.922Z,77.00
2019-03-24T05:46:49.913Z,80.70
2019-03-24T05:47:49.869Z,82.30
2019-03-24T05:48:49.872Z,78.00
2019-03-24T05:49:49.850Z,75.70
2019-03-24T05:50:49.867Z,78.90
2019-03-24T05:51:49.876Z,81.00
2019-03-24T05:52:49.822Z,82.50
2019-03-24T05:53:49.821Z,83.50
2019-03-24T05:54:49.788Z,82.10
2019-03-24T05:55:49.801Z,82.70
2019-03-24T05:56:49.802Z,77.20
2019-03-24T05:57:49.766Z,78.50
2019-03-24T05:58:49.750Z,83.10
2019-03-24T05:59:49.751Z,80.60
2019-03-24T06:00:49.743Z,81.20
2019-03-24T06:01:49.738Z,81.50
2019-03-24T06:02:49.701Z,75.80
2019-03-24T06:03:49.757Z,78.40
2019-03-24T06:04:49.693Z,76.90
2019-03-24T06:05:49.929Z,76.90
2019-03-24T06:06:49.659Z,80.00
2019-03-24T06:07:49.670Z,81.00
2019-03-24T06:08:49.647Z,76.30
2019-03-24T06:09:49.672Z,81.20
2019-03-24T06:10:49.641Z,79.20
2019-03-24T06:11:49.621Z,76.80
2019-03-24T06:12:49.592Z,79.00
2019-03-24T06:13:49.607Z,79.80
2019-03-24T06:14:49.573Z,77.60
2019-03-24T06:15:49.566Z,76.70
2019-03-24T06:16:49.582Z,78.10
2019-03-24T06:17:49.536Z,77.10
2019-03-24T06:18:49.526Z,77.30
2019-03-24T06:19:49.510Z,76.30
2019-03-24T06:20:49.508Z,76.90
2019-03-24T06:21:49.502Z,78.80
2019-03-24T06:22:49.483Z,76.70
2019-03-24T06:23:49.471Z,76.40
2019-03-24T06:24:49.468Z,80.10
2019-03-24T06:25:49.451Z,71.90
2019-03-24T06:26:49.497Z,77.80
2019-03-24T06:27:49.425Z,72.80
2019-03-24T06:28:49.418Z,77.10
2019-03-24T06:29:49.398Z,76.60
2019-03-24T06:30:49.393Z,73.20
2019-03-24T06:31:49.411Z,75.30
2019-03-24T06:32:49.448Z,76.40
2019-03-24T06:33:49.355Z,75.60
2019-03-24T06:34:49.365Z,72.10
2019-03-24T06:35:49.342Z,77.10
2019-03-24T06:36:49.333Z,75.60
2019-03-24T06:37:49.310Z,76.50
2019-03-24T06:38:49.300Z,76.50
2019-03-24T06:39:49.295Z,73.90
2019-03-24T06:40:49.283Z,73.00
2019-03-24T06:41:49.275Z,73.10
2019-03-24T06:42:49.252Z,76.30
2019-03-24T06:43:49.241Z,76.20
2019-03-24T06:44:49.231Z,72.90
2019-03-24T06:45:49.224Z,76.20
2019-03-24T06:46:49.533Z,73.40
2019-03-24T06:47:57.594Z,72.10
2019-03-24T06:48:50.188Z,71.70
2019-03-24T06:49:49.201Z,71.80
2019-03-24T06:50:49.162Z,74.10
2019-03-24T06:51:49.166Z,75.10
2019-03-24T06:52:49.139Z,73.90
2019-03-24T06:53:49.129Z,72.70
2019-03-24T06:54:49.220Z,77.10
2019-03-24T06:55:49.133Z,76.20
2019-03-24T06:56:49.112Z,71.00
2019-03-24T06:57:49.086Z,74.60
2019-03-24T06:58:49.071Z,76.40
2019-03-24T06:59:49.059Z,74.50
2019-03-24T07:00:49.046Z,73.90
2019-03-24T07:01:49.035Z,70.90
2019-03-24T07:02:49.030Z,75.20
2019-03-24T07:03:49.016Z,74.70
2019-03-24T07:04:49.004Z,73.30
2019-03-24T07:05:48.999Z,70.00
2019-03-24T07:06:49.053Z,72.00
2019-03-24T07:07:48.995Z,71.80
2019-03-24T07:08:48.972Z,74.70
2019-03-24T07:09:48.965Z,72.90
2019-03-24T07:10:48.937Z,73.30
2019-03-24T07:11:48.926Z,74.60
2019-03-24T07:12:48.928Z,76.80
2019-03-24T07:13:48.899Z,74.00
2019-03-24T07:14:48.887Z,74.30
2019-03-24T07:15:48.876Z,71.40
2019-03-24T07:16:48.874Z,72.00
2019-03-24T07:17:48.865Z,72.60
2019-03-24T07:18:48.866Z,72.70
2019-03-24T07:19:48.836Z,77.80
2019-03-24T07:20:48.819Z,75.90
2019-03-24T07:21:48.809Z,73.70
2019-03-24T07:22:48.818Z,72.40
2019-03-24T07:23:48.786Z,74.50
2019-03-24T07:24:48.773Z,76.20
2019-03-24T07:25:48.778Z,71.30
2019-03-24T07:26:48.789Z,73.90
2019-03-24T07:27:48.756Z,73.30
2019-03-24T07:28:48.733Z,72.00
2019-03-24T07:29:48.720Z,74.70
2019-03-24T07:30:48.709Z,73.80
2019-03-24T07:31:48.694Z,71.00
2019-03-24T07:32:48.766Z,70.80
2019-03-24T07:33:48.688Z,70.70
2019-03-24T07:34:48.669Z,71.50
2019-03-24T07:35:48.658Z,71.00
2019-03-24T07:36:48.640Z,73.20
2019-03-24T07:37:48.648Z,71.80
2019-03-24T07:38:48.618Z,69.80
2019-03-24T07:39:48.664Z,68.30
2019-03-24T07:40:48.614Z,71.20
2019-03-24T07:41:48.591Z,71.80
2019-03-24T07:42:48.793Z,69.30
2019-03-24T07:43:48.571Z,69.40
2019-03-24T07:44:48.548Z,71.60
2019-03-24T07:45:48.571Z,68.60
2019-03-24T07:46:48.555Z,70.80
2019-03-24T07:47:49.182Z,68.10
2019-03-24T07:48:48.517Z,70.40
2019-03-24T07:49:48.495Z,70.40
2019-03-24T07:50:48.540Z,71.20
2019-03-24T07:51:48.476Z,69.00
2019-03-24T07:52:48.474Z,66.50
2019-03-24T07:53:48.465Z,68.00
2019-03-24T07:54:48.446Z,71.20
2019-03-24T07:55:48.423Z,67.70
2019-03-24T07:56:48.439Z,68.60
2019-03-24T07:57:48.411Z,70.60
2019-03-24T07:58:48.419Z,69.10
2019-03-24T07:59:48.399Z,69.20
2019-03-24T08:00:48.524Z,67.40
2019-03-24T08:01:48.363Z,72.00
2019-03-24T08:02:51.310Z,68.30
2019-03-24T08:03:48.353Z,68.50
2019-03-24T08:04:48.331Z,68.60
2019-03-24T08:05:48.315Z,66.70
2019-03-24T08:06:48.357Z,65.00
2019-03-24T08:07:48.317Z,65.30
2019-03-24T08:08:48.300Z,67.20
2019-03-24T08:09:48.301Z,64.90
2019-03-24T08:10:48.272Z,65.70
2019-03-24T08:11:48.248Z,68.10
2019-03-24T08:12:48.319Z,70.50
2019-03-24T08:13:53.658Z,68.70
2019-03-24T08:14:49.267Z,65.30
2019-03-24T08:15:48.210Z,65.20
2019-03-24T08:16:48.190Z,63.70
2019-03-24T08:17:48.188Z,66.00
2019-03-24T08:18:48.204Z,66.20
2019-03-24T08:19:48.156Z,64.40
2019-03-24T08:20:48.148Z,67.20
2019-03-24T08:21:48.142Z,62.70
2019-03-24T08:22:48.123Z,64.20
2019-03-24T08:23:48.138Z,63.30
2019-03-24T08:24:48.096Z,63.80
2019-03-24T08:25:48.091Z,65.70
2019-03-24T08:26:48.076Z,62.50
2019-03-24T08:27:48.076Z,65.20
2019-03-24T08:28:48.063Z,64.90
2019-03-24T08:29:48.055Z,63.70
2019-03-24T08:30:48.031Z,64.00
2019-03-24T08:31:48.088Z,63.90
2019-03-24T08:32:48.011Z,64.00
2019-03-24T08:33:48.125Z,62.80
2019-03-24T08:34:48.520Z,58.70
2019-03-24T08:35:47.973Z,63.20
2019-03-24T08:36:47.964Z,59.50
2019-03-24T08:37:47.956Z,61.30
2019-03-24T08:38:47.998Z,61.50
2019-03-24T08:39:47.963Z,62.80
2019-03-24T08:40:47.925Z,62.40
2019-03-24T08:41:47.915Z,63.50
2019-03-24T08:42:47.894Z,60.80
2019-03-24T08:43:47.887Z,64.20
2019-03-24T08:44:47.892Z,62.10
2019-03-24T08:45:47.891Z,63.70
2019-03-24T08:46:47.850Z,61.50
2019-03-24T08:47:47.883Z,61.90
2019-03-24T08:48:47.831Z,60.30
2019-03-24T08:49:47.862Z,62.20
2019-03-24T08:50:47.919Z,59.60
2019-03-24T08:51:47.797Z,58.70
2019-03-24T08:52:47.783Z,58.50
2019-03-24T08:53:47.779Z,58.00
2019-03-24T08:54:47.768Z,60.60
2019-03-24T08:55:47.774Z,58.60
2019-03-24T08:56:47.736Z,59.20
2019-03-24T08:57:47.737Z,58.30
2019-03-24T08:58:47.802Z,58.50
2019-03-24T08:59:47.708Z,58.40
2019-03-24T09:00:47.716Z,58.00
2019-03-24T09:01:47.718Z,59.20
2019-03-24T09:02:47.666Z,59.30
2019-03-24T09:03:47.655Z,58.10
2019-03-24T09:04:47.652Z,62.30
2019-03-24T09:05:47.635Z,59.60
2019-03-24T09:06:47.635Z,61.40
2019-03-24T09:07:47.610Z,62.10
2019-03-24T09:08:48.983Z,60.40
2019-03-24T09:09:47.625Z,60.30
2019-03-24T09:10:47.580Z,58.00
2019-03-24T09:11:47.567Z,61.00
2019-03-24T09:12:47.557Z,59.40
2019-03-24T09:13:47.569Z,59.20
2019-03-24T09:14:47.531Z,58.80
2019-03-24T09:15:47.524Z,57.10
2019-03-24T09:16:47.524Z,57.40
2019-03-24T09:17:47.626Z,59.30
2019-03-24T09:18:52.535Z,58.20
2019-03-24T09:19:48.470Z,60.20
2019-03-24T09:20:47.511Z,59.90
2019-03-24T09:21:47.556Z,59.00
2019-03-24T09:22:47.515Z,57.40
2019-03-24T09:23:47.561Z,58.70
2019-03-24T09:24:47.459Z,57.50
2019-03-24T09:25:47.407Z,59.90
2019-03-24T09:26:47.394Z,60.50
2019-03-24T09:27:47.396Z,61.10
2019-03-24T09:28:47.382Z,60.80
2019-03-24T09:29:47.365Z,57.00
2019-03-24T09:30:47.367Z,55.20
2019-03-24T09:31:47.348Z,58.30
2019-03-24T09:32:47.332Z,58.20
2019-03-24T09:33:47.320Z,57.50
2019-03-24T09:34:47.322Z,58.00
2019-03-24T09:35:47.299Z,57.20
2019-03-24T09:36:47.283Z,57.60
2019-03-24T09:37:47.271Z,56.70
2019-03-24T09:38:47.260Z,56.40
2019-03-24T09:39:47.257Z,58.50
2019-03-24T09:40:47.243Z,60.20
2019-03-24T09:41:47.226Z,57.90
2019-03-24T09:42:47.213Z,56.50
2019-03-24T09:43:47.203Z,56.60
2019-03-24T09:44:47.199Z,57.50
2019-03-24T09:45:47.200Z,56.70
2019-03-24T09:46:47.167Z,57.30
2019-03-24T09:47:47.165Z,56.30
2019-03-24T09:48:47.150Z,56.30
2019-03-24T09:49:47.134Z,56.30
2019-03-24T09:50:47.133Z,57.10
2019-03-24T09:51:47.113Z,55.80
2019-03-24T09:52:47.101Z,56.40
2019-03-24T09:53:47.092Z,54.60
2019-03-24T09:54:47.112Z,56.70
2019-03-24T09:55:47.071Z,57.90
2019-03-24T09:56:47.057Z,57.10
2019-03-24T09:57:48.859Z,57.20
2019-03-24T09:58:47.035Z,53.80
2019-03-24T09:59:47.020Z,56.30
2019-03-24T10:00:47.027Z,56.50
2019-03-24T10:01:47.007Z,56.10
2019-03-24T10:02:47.016Z,57.00
2019-03-24T10:03:46.983Z,57.20
2019-03-24T10:04:46.979Z,57.60
2019-03-24T10:05:46.984Z,56.50
2019-03-24T10:06:46.944Z,56.90
2019-03-24T10:07:46.994Z,58.40
2019-03-24T10:08:47.544Z,54.40
2019-03-24T10:09:46.909Z,57.60
2019-03-24T10:10:46.928Z,56.80
2019-03-24T10:11:49.039Z,56.40
2019-03-24T10:12:46.877Z,59.20
2019-03-24T10:13:46.862Z,56.90
2019-03-24T10:14:46.854Z,57.90
2019-03-24T10:15:46.850Z,57.30
2019-03-24T10:16:46.834Z,56.70
2019-03-24T10:17:46.835Z,59.60
2019-03-24T10:18:46.810Z,60.90
2019-03-24T10:19:46.794Z,57.90
2019-03-24T10:20:46.791Z,60.40
2019-03-24T10:21:46.786Z,58.60
2019-03-24T10:22:46.761Z,58.20
2019-03-24T10:23:46.754Z,61.30
2019-03-24T10:24:47.425Z,59.20
2019-03-24T10:25:46.750Z,59.50
2019-03-24T10:26:46.732Z,58.70
2019-03-24T10:27:46.713Z,59.30
2019-03-24T10:28:46.696Z,58.60
2019-03-24T10:29:46.701Z,61.20
2019-03-24T10:30:46.704Z,57.50
2019-03-24T10:31:46.716Z,60.90
2019-03-24T10:32:46.659Z,60.40
2019-03-24T10:33:46.661Z,59.30
2019-03-24T10:34:46.625Z,57.00
2019-03-24T10:35:46.616Z,56.70
2019-03-24T10:36:46.630Z,55.40
2019-03-24T10:37:46.594Z,58.60
2019-03-24T10:38:46.582Z,60.20
2019-03-24T10:39:46.586Z,59.80
2019-03-24T10:40:46.558Z,57.40
2019-03-24T10:41:46.565Z,59.40
2019-03-24T10:42:46.536Z,59.20
2019-03-24T10:43:46.522Z,58.20
2019-03-24T10:44:46.512Z,59.40
2019-03-24T10:45:46.504Z,61.70
2019-03-24T10:46:46.488Z,58.30
2019-03-24T10:47:46.482Z,58.20
2019-03-24T10:48:46.466Z,57.90
2019-03-24T10:49:46.460Z,57.10
2019-03-24T10:50:46.446Z,57.40
2019-03-24T10:51:46.434Z,58.80
2019-03-24T10:52:46.428Z,57.90
2019-03-24T10:53:46.411Z,60.90
2019-03-24T10:54:46.416Z,58.20
2019-03-24T10:55:46.387Z,57.20
2019-03-24T10:56:46.377Z,55.10
2019-03-24T10:57:46.375Z,60.30
2019-03-24T10:58:46.355Z,58.20
2019-03-24T10:59:46.344Z,58.40
2019-03-24T11:00:46.337Z,56.90
2019-03-24T11:01:46.322Z,59.00
2019-03-24T11:02:46.325Z,55.90
2019-03-24T11:03:46.298Z,55.60
2019-03-24T11:04:46.287Z,58.40
2019-03-24T11:05:46.277Z,57.70
2019-03-24T11:07:03.783Z,54.20
2019-03-24T11:08:19.671Z,55.90
2019-03-24T11:19:35.056Z,48.60
2019-03-24T11:21:34.447Z,54.90
2019-03-24T11:32:39.320Z,50.60
2019-03-24T11:43:39.232Z,46.00
2019-03-24T11:54:39.085Z,47.80
2019-03-24T12:05:38.959Z,49.20
2019-03-24T12:16:38.824Z,49.20
2019-03-24T12:27:38.697Z,43.70
2019-03-24T12:38:38.580Z,45.60
2019-03-24T12:49:38.470Z,40.30
2019-03-24T13:00:38.327Z,55.10
2019-03-24T13:11:38.247Z,47.00
2019-03-24T13:22:38.090Z,58.60
2019-03-24T13:33:37.958Z,50.10
2019-03-24T13:44:37.833Z,57.30
2019-03-24T13:55:37.706Z,60.10
2019-03-24T14:06:37.585Z,53.40
2019-03-24T14:17:37.472Z,48.30
2019-03-24T14:28:37.352Z,42.30
2019-03-24T14:39:37.210Z,47.30
2019-03-24T14:50:37.090Z,51.80
2019-03-24T15:01:36.960Z,50.30
2019-03-24T15:12:36.836Z,48.00
2019-03-24T15:23:36.712Z,42.60
2019-03-24T15:34:36.603Z,50.70
2019-03-24T15:45:36.463Z,40.00
2019-03-24T15:56:36.351Z,35.30
2019-03-24T16:07:36.235Z,29.40
2019-03-24T16:18:36.095Z,31.80
2019-03-24T16:29:35.961Z,38.70
2019-03-24T16:40:35.847Z,40.20
2019-03-24T16:51:38.768Z,32.30
2019-03-24T17:02:35.585Z,32.60
2019-03-24T17:13:35.481Z,28.60
2019-03-24T17:24:35.353Z,25.20
2019-03-24T17:35:35.222Z,21.20
2019-03-24T17:46:35.113Z,22.20
2019-03-24T17:57:35.036Z,22.20
2019-03-24T18:08:34.855Z,16.40
2019-03-24T18:19:34.727Z,16.10
2019-03-24T18:30:34.604Z,18.20
2019-03-24T18:41:34.480Z,16.20
2019-03-24T18:52:34.349Z,24.20
2019-03-24T19:03:34.263Z,23.30
2019-03-24T19:14:34.145Z,18.00
2019-03-24T19:25:33.973Z,25.10
2019-03-24T19:36:33.850Z,30.90
2019-03-24T19:47:33.729Z,36.30
2019-03-24T19:58:33.602Z,38.80
2019-03-24T20:09:33.505Z,36.90
2019-03-24T20:20:33.373Z,29.40
2019-03-24T20:31:33.231Z,26.90
2019-03-24T20:42:33.107Z,32.80
2019-03-24T20:53:32.978Z,26.20
2019-03-24T21:04:32.862Z,32.70
2019-03-24T21:15:32.761Z,23.60
2019-03-24T21:26:32.632Z,21.70
2019-03-24T21:37:32.567Z,12.70
2019-03-24T21:48:32.354Z,20.20
2019-03-24T21:59:32.370Z,12.70
2019-03-24T22:10:32.122Z,18.10
2019-03-24T22:21:31.988Z,9.70
2019-03-24T22:32:31.904Z,14.30
2019-03-24T22:43:31.757Z,12.70
2019-03-24T22:54:31.611Z,10.50
2019-03-24T23:05:31.488Z,16.10
2019-03-24T23:16:31.366Z,15.90
2019-03-24T23:27:31.254Z,11.70
2019-03-24T23:38:31.127Z,9.90
2019-03-24T23:49:31.016Z,15.00
